Time;durP1;ratioP1;P1;durP2;ratioP2;P2;SDS_P1;SDS_P2;PMS_P1;PMS_P2;Temp;Humidity;BMP_temperature;BMP_pressure;BME280_temperature;BME280_humidity;BME280_pressure;Samples;Min_cycle;Max_cycle;Signal;HPM_P1;HPM_P2
2022/07/26 00:00:51;;;;;;;5.03;1.42;;;19.20;99.90;;;;;;6271656;22;20000;-87
2022/07/26 00:03:17;;;;;;;6.05;1.40;;;19.20;99.90;;;;;;6245139;22;20039;-86
2022/07/26 00:05:43;;;;;;;7.97;1.83;;;19.20;99.90;;;;;;6272432;22;20000;-87
2022/07/26 00:08:12;;;;;;;9.27;1.95;;;19.10;99.90;;;;;;6271630;22;20008;-87
2022/07/26 00:10:47;;;;;;;9.45;1.77;;;19.10;99.90;;;;;;6271772;22;20212;-87
2022/07/26 00:13:16;;;;;;;5.03;1.52;;;19.00;99.90;;;;;;6245980;22;20045;-87
2022/07/26 00:15:42;;;;;;;10.95;2.17;;;19.10;99.90;;;;;;6271558;22;20004;-87
2022/07/26 00:18:08;;;;;;;5.88;1.73;;;19.10;99.90;;;;;;6271562;22;20243;-86
2022/07/26 00:20:34;;;;;;;8.10;1.60;;;19.10;99.90;;;;;;6271331;22;20056;-87
2022/07/26 00:23:00;;;;;;;5.05;1.42;;;19.20;99.90;;;;;;6270693;22;20011;-88
2022/07/26 00:25:26;;;;;;;7.85;1.73;;;19.20;99.90;;;;;;6271549;22;19996;-85
2022/07/26 00:27:53;;;;;;;11.07;1.92;;;19.00;99.90;;;;;;6244352;22;20023;-87
2022/07/26 00:30:19;;;;;;;7.00;1.77;;;19.10;99.90;;;;;;6244782;22;20004;-85
2022/07/26 00:32:45;;;;;;;6.68;1.58;;;19.10;99.90;;;;;;6245320;22;20395;-87
2022/07/26 00:35:11;;;;;;;8.98;1.55;;;19.10;99.90;;;;;;6244111;22;20440;-88
2022/07/26 00:37:37;;;;;;;6.18;1.58;;;19.10;99.90;;;;;;6271796;22;20007;-87
2022/07/26 00:40:04;;;;;;;10.75;1.75;;;19.20;99.90;;;;;;6271454;22;20004;-86
2022/07/26 00:42:30;;;;;;;9.55;1.73;;;19.00;99.90;;;;;;6271415;22;20497;-87
2022/07/26 00:44:56;;;;;;;9.82;1.60;;;19.10;99.90;;;;;;6271412;22;20000;-87
2022/07/26 00:47:22;;;;;;;6.85;1.70;;;18.90;99.90;;;;;;6271457;22;19999;-86
2022/07/26 00:49:49;;;;;;;7.28;1.50;;;18.80;99.90;;;;;;6244914;22;20029;-89
2022/07/26 00:52:16;;;;;;;6.83;1.50;;;18.90;99.90;;;;;;6272463;22;20046;-86
2022/07/26 00:54:44;;;;;;;5.90;1.70;;;19.00;99.90;;;;;;6244314;22;20290;-88
2022/07/26 00:57:11;;;;;;;5.32;1.42;;;19.00;99.90;;;;;;6270762;22;20078;-86
2022/07/26 00:59:37;;;;;;;3.87;1.40;;;18.90;99.90;;;;;;6272128;22;20027;-87
2022/07/26 01:02:05;;;;;;;8.00;1.70;;;19.00;99.90;;;;;;6271009;22;20016;-86
2022/07/26 01:04:31;;;;;;;7.93;1.40;;;19.00;99.90;;;;;;6271217;22;20003;-87
2022/07/26 01:06:57;;;;;;;7.53;1.52;;;18.90;99.90;;;;;;6271327;22;20007;-87
2022/07/26 01:09:23;;;;;;;6.82;1.70;;;18.90;99.90;;;;;;6244908;22;20007;-86
2022/07/26 01:11:50;;;;;;;7.38;1.88;;;18.70;99.90;;;;;;6273083;22;20003;-86
2022/07/26 01:14:20;;;;;;;6.35;1.65;;;18.70;99.90;;;;;;6272822;22;19999;-84
2022/07/26 01:16:47;;;;;;;5.32;1.63;;;18.70;99.90;;;;;;6273324;22;20318;-85
2022/07/26 01:19:13;;;;;;;7.20;1.50;;;18.70;99.90;;;;;;6244557;22;20054;-86
2022/07/26 01:21:39;;;;;;;5.80;1.30;;;18.70;99.90;;;;;;6272066;22;20016;-85
2022/07/26 01:24:05;;;;;;;10.65;1.85;;;18.70;99.90;;;;;;6272344;22;20086;-87
2022/07/26 01:26:31;;;;;;;8.73;1.38;;;18.80;99.90;;;;;;6244118;22;20004;-87
2022/07/26 01:28:57;;;;;;;5.65;1.48;;;18.80;99.90;;;;;;6271503;22;20002;-86
2022/07/26 01:31:23;;;;;;;10.20;1.80;;;18.80;99.90;;;;;;6243845;22;20004;-86
2022/07/26 01:33:49;;;;;;;4.03;1.20;;;18.80;99.90;;;;;;6272310;22;20004;-85
2022/07/26 01:36:15;;;;;;;6.65;1.70;;;18.80;99.90;;;;;;6273066;22;20003;-86
2022/07/26 01:38:41;;;;;;;6.32;1.85;;;18.70;99.90;;;;;;6245900;22;20008;-85
2022/07/26 01:41:07;;;;;;;6.60;1.77;;;18.70;99.90;;;;;;6272774;22;20368;-85
2022/07/26 01:43:33;;;;;;;9.30;1.50;;;18.70;99.90;;;;;;6273331;22;20004;-86
2022/07/26 01:45:58;;;;;;;7.38;1.52;;;18.70;99.90;;;;;;6246761;22;20422;-86
2022/07/26 01:48:24;;;;;;;10.30;1.50;;;18.70;99.90;;;;;;6245658;22;20008;-87
2022/07/26 01:50:50;;;;;;;6.72;1.55;;;18.70;99.90;;;;;;6274144;22;20007;-88
2022/07/26 01:53:15;;;;;;;6.68;1.80;;;18.70;99.90;;;;;;6273047;22;20074;-88
2022/07/26 01:55:41;;;;;;;5.18;1.40;;;18.80;99.90;;;;;;6272970;22;20000;-87
2022/07/26 01:58:07;;;;;;;9.10;1.60;;;18.70;99.90;;;;;;6272821;22;20067;-84
2022/07/26 02:00:33;;;;;;;7.55;1.85;;;;;;;;;;6272775;22;20007;-85
2022/07/26 02:02:59;;;;;;;6.35;1.85;;;18.70;99.90;;;;;;6272528;22;20083;-85
2022/07/26 02:05:25;;;;;;;6.38;1.40;;;18.60;99.90;;;;;;6272833;22;20007;-86
2022/07/26 02:07:51;;;;;;;8.25;1.67;;;18.60;99.90;;;;;;6274006;22;20004;-87
2022/07/26 02:10:17;;;;;;;7.32;1.40;;;18.60;99.90;;;;;;6272844;22;19995;-86
2022/07/26 02:12:42;;;;;;;4.28;1.50;;;18.60;99.90;;;;;;6272627;22;20436;-87
2022/07/26 02:15:09;;;;;;;11.23;1.73;;;18.50;99.90;;;;;;6245955;22;20065;-87
2022/07/26 02:17:35;;;;;;;8.00;1.83;;;18.50;99.90;;;;;;6245420;22;20000;-86
2022/07/26 02:20:01;;;;;;;7.88;1.70;;;18.50;99.90;;;;;;6272839;22;20000;-87
2022/07/26 02:22:27;;;;;;;4.18;1.52;;;18.50;99.90;;;;;;6240134;23;20020;-86
2022/07/26 02:24:53;;;;;;;7.05;1.83;;;18.40;99.90;;;;;;6243119;22;20456;-86
2022/07/26 02:27:19;;;;;;;6.53;1.50;;;18.20;99.90;;;;;;6242034;22;20004;-86
2022/07/26 02:29:44;;;;;;;7.78;1.73;;;18.30;99.90;;;;;;6241887;22;20709;-85
2022/07/26 02:32:10;;;;;;;3.85;1.33;;;18.40;99.90;;;;;;6241748;23;20000;-85
2022/07/26 02:34:36;;;;;;;5.75;1.50;;;18.50;99.90;;;;;;6242098;23;20379;-85
2022/07/26 02:37:02;;;;;;;11.45;1.67;;;18.50;99.90;;;;;;6242130;22;20004;-87
2022/07/26 02:39:28;;;;;;;6.53;1.65;;;18.40;99.90;;;;;;6241897;22;20000;-85
2022/07/26 02:41:55;;;;;;;6.55;1.70;;;18.40;99.90;;;;;;6241106;23;20004;-85
2022/07/26 02:44:22;;;;;;;10.85;1.85;;;18.30;99.90;;;;;;6242756;22;20011;-85
2022/07/26 02:46:49;;;;;;;7.85;2.25;;;18.40;99.90;;;;;;6239838;23;20020;-89
2022/07/26 02:49:14;;;;;;;8.23;1.52;;;18.20;99.90;;;;;;6242243;22;20023;-86
2022/07/26 02:51:40;;;;;;;7.38;1.83;;;18.30;99.90;;;;;;6240113;23;20340;-86
2022/07/26 02:54:06;;;;;;;9.07;1.90;;;18.30;99.90;;;;;;6265827;22;20016;-87
2022/07/26 02:56:31;;;;;;;5.82;1.83;;;18.20;99.90;;;;;;6239642;23;20004;-87
2022/07/26 02:58:57;;;;;;;7.13;1.77;;;18.20;99.90;;;;;;6242059;22;20011;-86
2022/07/26 03:01:23;;;;;;;11.13;1.77;;;18.20;99.90;;;;;;6241356;23;20032;-87
2022/07/26 03:03:48;;;;;;;8.75;1.80;;;18.30;99.90;;;;;;6240065;23;20345;-85
2022/07/26 03:06:14;;;;;;;10.48;1.95;;;18.30;99.90;;;;;;6241589;23;20042;-86
2022/07/26 03:08:40;;;;;;;5.28;1.60;;;18.30;99.90;;;;;;6241365;22;20058;-85
2022/07/26 03:11:06;;;;;;;7.30;1.90;;;18.30;99.90;;;;;;6241245;23;20004;-87
2022/07/26 03:13:32;;;;;;;6.68;1.45;;;18.30;99.90;;;;;;6239584;23;20043;-87
2022/07/26 03:15:58;;;;;;;4.65;1.60;;;18.30;99.90;;;;;;6240534;23;20079;-87
2022/07/26 03:18:24;;;;;;;6.88;2.10;;;18.30;99.90;;;;;;6242737;22;20089;-87
2022/07/26 03:20:50;;;;;;;5.40;1.58;;;18.40;99.90;;;;;;6241732;23;20004;-86
2022/07/26 03:23:16;;;;;;;8.90;1.75;;;18.30;99.90;;;;;;6266659;22;20043;-87
2022/07/26 03:25:42;;;;;;;7.05;1.67;;;18.30;99.90;;;;;;6271908;22;20329;-88
2022/07/26 03:28:07;;;;;;;4.43;1.83;;;18.30;99.90;;;;;;6271720;22;20031;-87
2022/07/26 03:30:33;;;;;;;7.55;1.58;;;18.20;99.90;;;;;;6245017;22;20087;-85
2022/07/26 03:32:59;;;;;;;6.60;1.70;;;18.10;99.90;;;;;;6272113;22;20006;-85
2022/07/26 03:35:25;;;;;;;6.10;1.70;;;18.40;99.90;;;;;;6245942;22;20433;-87
2022/07/26 03:37:51;;;;;;;7.00;1.73;;;18.20;99.90;;;;;;6244610;22;20008;-87
2022/07/26 03:40:18;;;;;;;5.88;1.55;;;18.20;99.90;;;;;;6271215;22;20000;-88
2022/07/26 03:42:45;;;;;;;4.45;1.58;;;18.20;99.90;;;;;;6271671;22;20016;-87
2022/07/26 03:45:12;;;;;;;9.70;2.00;;;18.20;99.90;;;;;;6271905;22;20007;-88
2022/07/26 03:47:37;;;;;;;6.72;1.70;;;18.20;99.90;;;;;;6271750;22;20006;-87
2022/07/26 03:50:04;;;;;;;6.68;1.70;;;18.20;99.90;;;;;;6271951;22;20071;-86
2022/07/26 03:52:30;;;;;;;7.28;1.70;;;18.10;99.90;;;;;;6273014;22;20471;-84
2022/07/26 03:54:56;;;;;;;6.30;1.52;;;18.00;99.90;;;;;;6273475;22;20004;-88
2022/07/26 03:57:21;;;;;;;6.68;1.50;;;17.90;99.90;;;;;;6271976;22;20011;-87
2022/07/26 03:59:47;;;;;;;8.23;1.88;;;18.00;99.90;;;;;;6245893;22;20000;-88
2022/07/26 04:02:13;;;;;;;5.50;1.80;;;17.90;99.90;;;;;;6245725;22;20012;-88
2022/07/26 04:04:38;;;;;;;6.38;1.83;;;17.90;99.90;;;;;;6245813;22;20095;-86
2022/07/26 04:07:04;;;;;;;8.98;1.63;;;17.90;99.90;;;;;;6271282;22;20004;-87
2022/07/26 04:09:30;;;;;;;7.63;1.80;;;;;;;;;;6272930;22;20052;-87
2022/07/26 04:11:56;;;;;;;5.20;1.52;;;18.00;99.90;;;;;;6272616;22;20003;-87
2022/07/26 04:14:22;;;;;;;6.60;1.80;;;17.80;99.90;;;;;;6244789;22;20012;-88
2022/07/26 04:16:47;;;;;;;5.90;1.75;;;17.90;99.90;;;;;;6272153;22;20003;-86
2022/07/26 04:19:13;;;;;;;6.65;1.70;;;18.00;99.90;;;;;;6272143;22;20034;-88
2022/07/26 04:21:39;;;;;;;7.10;1.65;;;18.10;99.90;;;;;;6271805;22;20004;-88
2022/07/26 04:24:05;;;;;;;6.25;2.00;;;18.10;99.90;;;;;;6272047;22;20012;-87
2022/07/26 04:26:31;;;;;;;6.93;1.80;;;18.00;99.90;;;;;;6272667;22;20004;-86
2022/07/26 04:28:56;;;;;;;4.28;1.70;;;18.20;99.90;;;;;;6270851;22;20004;-88
2022/07/26 04:31:23;;;;;;;4.05;1.48;;;18.10;99.90;;;;;;6245519;22;20019;-87
2022/07/26 04:33:48;;;;;;;6.65;1.60;;;18.00;99.90;;;;;;6244852;22;20018;-87
2022/07/26 04:36:14;;;;;;;5.93;1.88;;;18.00;99.90;;;;;;6271655;22;20007;-87
2022/07/26 04:38:40;;;;;;;5.55;1.70;;;18.00;99.90;;;;;;6244463;22;20003;-88
2022/07/26 04:41:05;;;;;;;5.43;1.65;;;18.00;99.90;;;;;;6271359;22;20003;-85
2022/07/26 04:43:32;;;;;;;4.00;1.60;;;18.00;99.90;;;;;;6245774;22;20012;-88
2022/07/26 04:45:57;;;;;;;8.13;2.03;;;17.90;99.90;;;;;;6272822;22;20023;-89
2022/07/26 04:48:24;;;;;;;8.10;1.63;;;17.90;99.90;;;;;;6244989;22;20011;-87
2022/07/26 04:50:50;;;;;;;6.13;1.70;;;17.90;99.90;;;;;;6244368;22;20027;-88
2022/07/26 04:53:16;;;;;;;4.47;1.70;;;18.00;99.90;;;;;;6271456;22;19996;-89
2022/07/26 04:55:42;;;;;;;8.20;2.05;;;18.00;99.90;;;;;;6271603;22;20006;-88
2022/07/26 04:58:08;;;;;;;5.93;1.80;;;17.90;99.90;;;;;;6271707;22;20004;-86
2022/07/26 05:00:35;;;;;;;4.50;1.60;;;17.90;99.90;;;;;;6244591;22;20004;-86
2022/07/26 05:03:01;;;;;;;6.03;1.50;;;18.00;99.90;;;;;;6272625;22;20019;-88
2022/07/26 05:05:29;;;;;;;6.65;1.60;;;18.00;99.90;;;;;;6271443;22;19996;-87
2022/07/26 05:07:58;;;;;;;8.85;1.60;;;17.80;99.90;;;;;;6271430;22;20083;-87
2022/07/26 05:10:29;;;;;;;;;;;18.00;99.90;;;;;;6273698;22;20307;-87
2022/07/26 05:12:54;;;;;;;2.88;1.33;;;17.90;99.90;;;;;;6246675;22;19934;-88
2022/07/26 05:15:20;;;;;;;8.10;1.70;;;17.80;99.90;;;;;;6246513;22;20383;-88
2022/07/26 05:17:46;;;;;;;8.35;1.65;;;17.90;99.90;;;;;;6273617;22;20008;-88
2022/07/26 05:20:14;;;;;;;6.05;1.55;;;17.90;99.90;;;;;;6246855;22;20031;-90
2022/07/26 05:22:40;;;;;;;;;;;17.90;99.90;;;;;;6242120;23;20016;-86
2022/07/26 05:25:06;;;;;;;6.45;1.58;;;17.80;99.90;;;;;;6241437;23;19946;-86
2022/07/26 05:27:32;;;;;;;9.55;1.60;;;18.00;99.90;;;;;;6244183;22;20004;-88
2022/07/26 05:29:58;;;;;;;7.85;1.90;;;18.00;99.90;;;;;;6241826;23;20011;-89
2022/07/26 05:32:24;;;;;;;6.28;1.42;;;18.00;99.90;;;;;;6242758;23;20074;-88
2022/07/26 05:34:49;;;;;;;5.45;1.70;;;18.10;99.90;;;;;;6242658;23;20006;-88
2022/07/26 05:37:15;;;;;;;3.15;1.48;;;18.10;99.90;;;;;;6242701;23;20000;-89
2022/07/26 05:39:41;;;;;;;6.68;1.58;;;18.10;99.90;;;;;;6242793;23;20035;-87
2022/07/26 05:42:06;;;;;;;4.18;1.33;;;18.10;99.90;;;;;;6242603;23;20509;-87
2022/07/26 05:44:32;;;;;;;7.68;1.67;;;18.10;99.90;;;;;;6243863;22;20000;-87
2022/07/26 05:46:58;;;;;;;6.75;1.48;;;18.10;99.90;;;;;;6242770;23;20389;-89
2022/07/26 05:49:24;;;;;;;6.65;1.50;;;18.10;99.90;;;;;;6241006;23;20336;-86
2022/07/26 05:51:51;;;;;;;8.02;1.58;;;;;;;;;;6266330;22;20004;-88
2022/07/26 05:54:17;;;;;;;4.72;1.90;;;18.10;99.90;;;;;;6240936;23;20007;-87
2022/07/26 05:56:43;;;;;;;8.35;1.80;;;18.10;99.90;;;;;;6240882;23;20008;-88
2022/07/26 05:59:09;;;;;;;7.72;1.52;;;18.10;99.90;;;;;;6242677;22;20075;-88
2022/07/26 06:01:34;;;;;;;4.55;1.50;;;18.20;99.90;;;;;;6267388;22;20009;-87
2022/07/26 06:04:00;;;;;;;6.30;1.60;;;18.20;99.90;;;;;;6242516;22;20064;-86
2022/07/26 06:06:26;;;;;;;10.20;1.70;;;18.20;99.90;;;;;;6242674;22;20003;-86
2022/07/26 06:08:52;;;;;;;9.60;1.65;;;18.30;99.90;;;;;;6242786;22;20000;-89
2022/07/26 06:11:17;;;;;;;3.90;1.40;;;18.30;99.90;;;;;;6242476;22;20425;-86
2022/07/26 06:13:43;;;;;;;9.15;1.58;;;18.40;99.90;;;;;;6266312;22;20015;-88
2022/07/26 06:16:09;;;;;;;6.78;1.70;;;18.30;99.90;;;;;;6242814;22;19996;-87
2022/07/26 06:18:35;;;;;;;4.78;1.70;;;18.40;99.90;;;;;;6243294;23;20000;-89
2022/07/26 06:21:00;;;;;;;7.32;1.50;;;18.40;99.90;;;;;;6242559;22;20035;-87
2022/07/26 06:23:26;;;;;;;5.43;1.50;;;18.40;99.90;;;;;;6269942;22;20012;-86
2022/07/26 06:25:52;;;;;;;6.65;1.90;;;18.50;99.90;;;;;;6273186;22;20067;-88
2022/07/26 06:28:18;;;;;;;7.10;1.65;;;18.50;99.90;;;;;;6246361;22;20003;-86
2022/07/26 06:30:44;;;;;;;6.97;1.60;;;18.50;99.90;;;;;;6272582;22;20004;-88
2022/07/26 06:33:10;;;;;;;8.30;1.95;;;18.50;99.90;;;;;;6272566;22;19999;-89
2022/07/26 06:35:38;;;;;;;7.63;1.60;;;;;;;;;;6246736;22;20058;-88
2022/07/26 06:38:07;;;;;;;3.92;1.48;;;18.60;99.90;;;;;;6273978;22;20083;-85
2022/07/26 06:40:34;;;;;;;4.78;2.47;;;18.70;99.90;;;;;;6245597;22;20455;-88
2022/07/26 06:43:00;;;;;;;6.15;2.28;;;18.80;99.90;;;;;;6272438;22;20519;-87
2022/07/26 06:45:26;;;;;;;9.55;2.13;;;18.90;99.90;;;;;;6272486;22;19999;-88
2022/07/26 06:47:52;;;;;;;6.82;1.83;;;19.00;99.90;;;;;;6245382;22;20038;-88
2022/07/26 06:50:17;;;;;;;7.85;1.77;;;19.00;99.90;;;;;;6245083;22;20391;-86
2022/07/26 06:52:43;;;;;;;4.30;1.42;;;18.90;99.90;;;;;;6273079;22;20004;-88
2022/07/26 06:55:09;;;;;;;10.27;1.50;;;18.80;99.90;;;;;;6273754;22;20002;-88
2022/07/26 06:57:35;;;;;;;6.45;2.08;;;18.80;99.90;;;;;;6273442;22;20003;-87
2022/07/26 07:00:04;;;;;;;7.22;1.60;;;18.90;99.90;;;;;;6272516;22;20003;-88
2022/07/26 07:02:30;;;;;;;7.70;1.65;;;19.00;99.90;;;;;;6272306;22;20338;-87
2022/07/26 07:04:55;;;;;;;6.18;1.75;;;19.00;99.90;;;;;;6272232;22;19999;-88
2022/07/26 07:07:21;;;;;;;4.30;1.50;;;19.20;99.90;;;;;;6272444;22;20004;-88
2022/07/26 07:09:47;;;;;;;11.57;1.60;;;19.20;99.90;;;;;;6245560;22;20000;-89
2022/07/26 07:12:14;;;;;;;12.63;1.67;;;19.30;99.90;;;;;;6272359;22;20488;-87
2022/07/26 07:14:39;;;;;;;6.78;1.50;;;19.30;99.90;;;;;;6273146;22;20003;-88
2022/07/26 07:17:06;;;;;;;7.90;2.50;;;19.30;99.90;;;;;;6244968;22;20003;-88
2022/07/26 07:19:35;;;;;;;12.18;1.67;;;19.40;99.90;;;;;;6244987;22;20018;-87
2022/07/26 07:22:01;;;;;;;16.63;1.92;;;19.50;99.90;;;;;;6272152;22;20482;-87
2022/07/26 07:24:26;;;;;;;7.80;1.60;;;19.60;99.90;;;;;;6272348;22;20026;-88
2022/07/26 07:26:52;;;;;;;6.70;1.30;;;19.50;99.90;;;;;;6272467;22;20000;-90
2022/07/26 07:29:19;;;;;;;7.03;1.40;;;19.50;99.90;;;;;;6272074;22;19996;-89
2022/07/26 07:31:46;;;;;;;4.53;1.20;;;19.50;99.90;;;;;;6271896;22;20003;-87
2022/07/26 07:34:13;;;;;;;6.03;1.33;;;19.60;99.90;;;;;;6272173;22;20476;-85
2022/07/26 07:36:39;;;;;;;6.68;1.40;;;19.50;99.90;;;;;;6273377;22;20000;-87
2022/07/26 07:39:05;;;;;;;8.52;1.60;;;19.60;99.90;;;;;;6272041;22;20057;-86
2022/07/26 07:41:33;;;;;;;3.55;1.30;;;19.60;99.90;;;;;;6244781;22;20034;-87
2022/07/26 07:43:59;;;;;;;4.85;1.30;;;19.60;99.90;;;;;;6271877;22;20004;-88
2022/07/26 07:46:25;;;;;;;5.80;1.30;;;19.50;99.90;;;;;;6271928;22;20000;-88
2022/07/26 07:48:51;;;;;;;6.22;1.33;;;19.60;99.90;;;;;;6271656;22;20015;-90
2022/07/26 07:51:17;;;;;;;6.95;1.42;;;19.80;99.90;;;;;;6272199;22;19996;-88
2022/07/26 07:53:43;;;;;;;8.48;1.60;;;19.60;99.90;;;;;;6272458;22;20052;-85
2022/07/26 07:56:09;;;;;;;9.43;1.23;;;19.90;99.90;;;;;;6272778;22;20463;-89
2022/07/26 07:58:34;;;;;;;5.25;1.33;;;20.00;99.90;;;;;;6271965;22;20003;-87
2022/07/26 08:01:00;;;;;;;8.40;1.70;;;20.10;99.90;;;;;;6271975;22;20000;-87
2022/07/26 08:03:26;;;;;;;4.78;1.35;;;20.10;99.90;;;;;;6244508;22;20353;-87
2022/07/26 08:05:51;;;;;;;5.38;1.50;;;20.00;99.90;;;;;;6271950;22;20432;-88
2022/07/26 08:08:18;;;;;;;8.85;1.50;;;20.20;99.90;;;;;;6271900;22;20007;-88
2022/07/26 08:10:44;;;;;;;7.68;1.60;;;19.70;99.90;;;;;;6271896;22;20004;-86
2022/07/26 08:13:10;;;;;;;7.03;1.50;;;19.70;99.90;;;;;;6245435;22;20004;-86
2022/07/26 08:15:36;;;;;;;3.92;1.20;;;20.00;99.90;;;;;;6271454;22;19999;-86
2022/07/26 08:18:01;;;;;;;4.97;1.33;;;20.30;99.90;;;;;;6271735;22;19996;-87
2022/07/26 08:20:27;;;;;;;4.03;1.08;;;20.40;99.90;;;;;;6244614;22;20091;-87
2022/07/26 08:22:53;;;;;;;2.35;0.98;;;20.20;99.90;;;;;;6271407;22;20039;-90
2022/07/26 08:25:19;;;;;;;7.38;1.10;;;20.40;99.90;;;;;;6271549;22;20075;-88
2022/07/26 08:27:45;;;;;;;3.97;1.15;;;20.70;99.90;;;;;;6272295;22;20401;-85
2022/07/26 08:30:11;;;;;;;8.88;1.23;;;20.80;99.90;;;;;;6272299;22;20011;-87
2022/07/26 08:32:36;;;;;;;4.60;1.00;;;20.30;99.90;;;;;;6271723;22;20110;-86
2022/07/26 08:35:03;;;;;;;10.40;1.33;;;20.00;99.90;;;;;;6244681;22;20432;-86
2022/07/26 08:37:29;;;;;;;2.03;1.10;;;20.10;99.90;;;;;;6271533;22;20003;-88
2022/07/26 08:39:54;;;;;;;5.00;0.80;;;20.20;99.90;;;;;;6271493;22;20340;-88
2022/07/26 08:42:24;;;;;;;5.13;1.35;;;20.50;99.90;;;;;;6271429;22;20011;-89
2022/07/26 08:44:50;;;;;;;6.22;1.10;;;20.60;99.90;;;;;;6270931;22;20007;-86
2022/07/26 08:47:19;;;;;;;6.75;1.10;;;20.30;99.90;;;;;;6271625;22;19995;-87
2022/07/26 08:49:46;;;;;;;5.80;1.10;;;20.00;99.90;;;;;;6245379;22;20432;-87
2022/07/26 08:52:13;;;;;;;2.13;1.00;;;20.10;99.90;;;;;;6272490;22;20357;-87
2022/07/26 08:54:51;;;;;;;4.95;1.10;;;20.40;99.90;;;;;;6271245;22;20007;-88
2022/07/26 08:57:17;;;;;;;3.72;1.40;;;20.60;99.90;;;;;;6271325;22;20000;-84
2022/07/26 08:59:43;;;;;;;3.45;0.90;;;20.40;99.90;;;;;;6272480;22;20004;-86
2022/07/26 09:02:11;;;;;;;3.53;1.13;;;20.60;99.90;;;;;;6271581;22;20034;-88
2022/07/26 09:04:39;;;;;;;4.28;0.90;;;20.60;99.90;;;;;;6271438;22;20114;-88
2022/07/26 09:07:11;;;;;;;3.10;1.20;;;20.30;99.90;;;;;;6271345;22;20000;-86
2022/07/26 09:09:54;;;;;;;3.33;1.13;;;19.80;99.90;;;;;;6271243;22;20262;-85
2022/07/26 09:12:22;;;;;;;1.30;0.77;;;19.70;99.90;;;;;;6244352;22;20011;-88
2022/07/26 09:14:48;;;;;;;4.63;1.00;;;19.90;99.90;;;;;;6271668;22;20015;-85
2022/07/26 09:17:19;;;;;;;4.07;1.20;;;20.20;99.90;;;;;;6245318;22;20008;-86
2022/07/26 09:20:00;;;;;;;12.25;1.20;;;20.00;99.90;;;;;;6245391;22;20005;-87
2022/07/26 09:22:26;;;;;;;3.20;1.08;;;19.80;99.90;;;;;;6271203;22;20019;-87
2022/07/26 09:24:52;;;;;;;3.20;0.98;;;20.00;99.90;;;;;;6271595;22;20000;-87
2022/07/26 09:27:18;;;;;;;11.07;1.38;;;20.40;99.90;;;;;;6244883;22;20008;-87
2022/07/26 09:29:48;;;;;;;2.70;0.80;;;20.50;99.90;;;;;;6272584;22;20031;-90
2022/07/26 09:32:25;;;;;;;3.03;0.82;;;20.00;99.90;;;;;;6245103;22;20475;-88
2022/07/26 09:34:55;;;;;;;3.80;0.70;;;20.30;99.90;;;;;;6271251;22;20004;-88
2022/07/26 09:37:35;;;;;;;2.20;0.90;;;20.60;99.90;;;;;;6244567;22;20027;-89
2022/07/26 09:40:04;;;;;;;2.45;1.00;;;20.50;99.90;;;;;;6271488;22;20017;-89
2022/07/26 09:42:30;;;;;;;5.55;0.88;;;20.30;99.90;;;;;;6244587;22;20012;-87
2022/07/26 09:44:57;;;;;;;2.85;0.90;;;20.70;99.90;;;;;;6271183;22;19999;-89
2022/07/26 09:47:34;;;;;;;6.10;1.13;;;20.90;99.90;;;;;;6272165;22;19999;-87
2022/07/26 09:50:09;;;;;;;;;;;21.10;99.90;;;;;;6273152;22;19999;-89
2022/07/26 09:52:36;;;;;;;2.30;0.90;;;21.20;99.90;;;;;;6272423;22;19906;-87
2022/07/26 09:55:07;;;;;;;2.25;0.80;;;21.30;99.90;;;;;;6245606;22;20000;-87
2022/07/26 09:57:34;;;;;;;4.22;1.05;;;21.30;99.90;;;;;;6273974;22;20345;-89
2022/07/26 10:00:09;;;;;;;1.83;1.00;;;20.80;99.90;;;;;;6273835;22;19996;-88
2022/07/26 10:02:35;;;;;;;2.92;0.85;;;20.90;99.90;;;;;;6246868;22;20059;-89
2022/07/26 10:05:00;;;;;;;7.30;1.30;;;20.80;99.90;;;;;;6273739;22;20000;-89
2022/07/26 10:07:26;;;;;;;4.80;1.00;;;21.10;99.90;;;;;;6274345;22;20112;-87
2022/07/26 10:09:59;;;;;;;6.07;1.10;;;21.10;99.90;;;;;;6273431;22;20023;-87
2022/07/26 10:12:28;;;;;;;2.25;1.00;;;21.60;99.90;;;;;;6272735;22;20004;-86
2022/07/26 10:14:55;;;;;;;5.55;1.00;;;21.70;99.90;;;;;;6272802;22;20053;-87
2022/07/26 10:17:37;;;;;;;8.57;1.42;;;21.50;99.90;;;;;;6273840;22;20042;-85
2022/07/26 10:20:05;;;;;;;3.45;1.00;;;22.00;99.90;;;;;;6272988;22;20000;-87
2022/07/26 10:22:33;;;;;;;11.65;1.90;;;22.10;99.90;;;;;;6272611;22;20023;-86
2022/07/26 10:25:17;;;;;;;7.35;1.13;;;21.90;99.90;;;;;;6272683;22;20006;-89
2022/07/26 10:27:45;;;;;;;7.15;1.13;;;21.90;99.90;;;;;;6272971;22;20003;-87
2022/07/26 10:30:17;;;;;;;5.93;1.23;;;22.20;99.90;;;;;;6272785;22;20003;-89
2022/07/26 10:33:14;;;;;;;5.53;1.40;;;22.00;99.90;;;;;;6272661;22;19995;-87
2022/07/26 10:35:42;;;;;;;2.28;0.70;;;21.80;99.90;;;;;;6242879;22;20083;-86
2022/07/26 10:38:11;;;;;;;3.83;1.30;;;22.00;99.90;;;;;;6273046;22;20054;-88
2022/07/26 10:40:53;;;;;;;4.40;1.00;;;21.70;99.90;;;;;;6273222;22;20061;-88
2022/07/26 10:43:19;;;;;;;2.97;0.90;;;21.40;99.90;;;;;;6274066;22;20086;-88
2022/07/26 10:45:45;;;;;;;3.42;0.77;;;21.40;99.90;;;;;;6272593;22;20023;-87
2022/07/26 10:48:18;;;;;;;2.97;1.02;;;21.30;99.90;;;;;;6272797;22;20129;-89
2022/07/26 10:50:47;;;;;;;4.05;0.90;;;21.40;99.90;;;;;;6272629;22;20416;-86
2022/07/26 10:53:22;;;;;;;7.30;1.30;;;21.20;99.90;;;;;;6272657;22;20804;-86
2022/07/26 10:55:56;;;;;;;7.93;1.65;;;21.10;99.90;;;;;;6273546;22;20008;-86
2022/07/26 10:58:24;;;;;;;4.28;1.70;;;21.30;99.90;;;;;;6273334;22;20007;-86
2022/07/26 11:01:00;;;;;;;2.67;1.02;;;21.10;99.90;;;;;;6273864;22;20028;-86
2022/07/26 11:03:35;;;;;;;2.30;1.10;;;21.30;99.90;;;;;;6272690;22;20458;-87
2022/07/26 11:06:16;;;;;;;4.57;1.27;;;21.30;99.90;;;;;;6244958;22;20125;-87
2022/07/26 11:08:44;;;;;;;1.25;0.82;;;21.40;99.90;;;;;;6245213;22;20007;-88
2022/07/26 11:11:10;;;;;;;3.13;1.00;;;21.10;99.90;;;;;;6245238;22;20007;-86
2022/07/26 11:13:36;;;;;;;2.85;0.90;;;21.00;99.90;;;;;;6272392;22;19996;-89
2022/07/26 11:16:07;;;;;;;6.57;1.20;;;21.20;99.90;;;;;;6272505;22;20450;-89
2022/07/26 11:18:35;;;;;;;3.35;1.95;;;21.30;99.90;;;;;;6272432;22;20003;-88
2022/07/26 11:21:15;;;;;;;5.22;1.02;;;21.40;99.90;;;;;;6272373;22;20079;-90
2022/07/26 11:23:45;;;;;;;1.23;0.73;;;21.60;99.90;;;;;;6272398;22;20349;-89
2022/07/26 11:26:17;;;;;;;2.83;0.70;;;21.50;99.90;;;;;;6244884;22;19999;-90
2022/07/26 11:28:54;;;;;;;2.55;0.98;;;21.40;99.90;;;;;;6245017;22;20004;-89
2022/07/26 11:31:38;;;;;;;2.77;0.87;;;21.60;99.90;;;;;;6273599;22;20003;-90
2022/07/26 11:34:05;;;;;;;4.10;1.15;;;21.30;99.90;;;;;;6272415;22;20219;-86
2022/07/26 11:36:40;;;;;;;2.47;0.73;;;21.60;99.90;;;;;;6272323;22;20019;-89
2022/07/26 11:39:14;;;;;;;3.67;1.20;;;21.40;99.90;;;;;;6272100;22;19996;-88
2022/07/26 11:41:41;;;;;;;3.60;1.13;;;21.70;99.90;;;;;;6245010;22;20343;-88
2022/07/26 11:44:21;;;;;;;4.97;0.90;;;21.80;99.90;;;;;;6271841;22;20345;-89
2022/07/26 11:46:48;;;;;;;2.25;1.20;;;21.70;99.90;;;;;;6244669;22;20000;-87
2022/07/26 11:49:18;;;;;;;2.53;0.80;;;22.00;99.90;;;;;;6272087;22;20014;-87
2022/07/26 11:51:53;;;;;;;2.90;0.80;;;22.40;99.90;;;;;;6271811;22;20086;-86
2022/07/26 11:54:27;;;;;;;5.63;3.03;;;22.50;99.90;;;;;;6271816;22;20002;-86
2022/07/26 11:56:58;;;;;;;1.83;0.60;;;22.40;99.90;;;;;;6273355;22;20010;-86
2022/07/26 11:59:32;;;;;;;4.30;0.70;;;22.20;99.90;;;;;;6245708;22;20309;-87
2022/07/26 12:01:58;;;;;;;3.70;0.85;;;22.00;99.90;;;;;;6244330;22;20028;-85
2022/07/26 12:04:27;;;;;;;3.28;0.80;;;22.50;99.90;;;;;;6272800;22;20086;-89
2022/07/26 12:06:54;;;;;;;2.63;0.80;;;23.00;99.90;;;;;;6272730;22;19995;-89
2022/07/26 12:09:30;;;;;;;0.57;0.52;;;22.90;99.90;;;;;;6271822;22;20027;-86
2022/07/26 12:11:56;;;;;;;3.72;0.75;;;22.20;99.90;;;;;;6272954;22;20432;-90
2022/07/26 12:14:31;;;;;;;4.82;0.80;;;22.10;99.90;;;;;;6245337;22;20525;-86
2022/07/26 12:16:58;;;;;;;3.75;0.98;;;21.90;99.90;;;;;;6246527;22;20023;-90
2022/07/26 12:19:27;;;;;;;5.00;1.27;;;22.30;99.90;;;;;;6273256;22;20000;-88
2022/07/26 12:21:58;;;;;;;2.92;0.90;;;22.10;99.90;;;;;;6272739;22;20412;-88
2022/07/26 12:24:38;;;;;;;2.53;0.90;;;22.10;99.90;;;;;;6272946;22;20073;-89
2022/07/26 12:27:10;;;;;;;3.65;0.65;;;22.30;99.90;;;;;;6244615;22;20008;-88
2022/07/26 12:29:38;;;;;;;2.70;0.85;;;22.60;99.90;;;;;;6244815;22;20087;-89
2022/07/26 12:32:21;;;;;;;5.05;0.95;;;22.40;99.90;;;;;;6271518;22;20000;-88
2022/07/26 12:34:59;;;;;;;3.88;1.00;;;22.60;99.90;;;;;;6271733;22;20021;-87
2022/07/26 12:37:30;;;;;;;2.28;0.70;;;22.40;99.90;;;;;;6272915;22;20000;-88
2022/07/26 12:40:00;;;;;;;5.35;0.93;;;22.50;99.90;;;;;;6272528;22;20437;-88
2022/07/26 12:42:31;;;;;;;3.72;0.73;;;22.90;99.90;;;;;;6272520;22;20086;-88
2022/07/26 12:44:58;;;;;;;3.20;0.90;;;22.80;99.90;;;;;;6272985;22;19996;-88
2022/07/26 12:47:24;;;;;;;1.23;0.60;;;22.80;99.90;;;;;;6272354;22;20086;-89
2022/07/26 12:49:51;;;;;;;1.35;0.70;;;22.20;99.90;;;;;;6271614;22;20541;-88